CheckWX is a tool to help pilots better visualize weather data.  It is not intended as a substitute for an official pre-flight weather briefing.

07:02:08 UTC

LFPB METAR
Paris-Le Bourget Airport
Paris, France
Current

32 mins ago

LFPB 280630Z AUTO 23020KT 9999 SCT035/// BKN043/// ///TCU 07/01 Q0998 TEMPO 22020G40KT 2000 TSRAGS BKN015CB
Observed
Jan-28 @ 06:30 UTC
Wind
  • 230° at 20 KTS
Visibility
10,000+ meters
Flight Rules
VFR
Cloud Levels
  • Scattered at 3,500' AGL
  • Broken at 4,300' AGL
Temperature
C / 45°F
Dewpoint
C / 34°F
Humidity
66%
Altimeter
29.47" Hg
Pressure
997.92 hPa
Previous

1 hour ago

LFPB 280600Z AUTO 23017G31KT 200V260 9999 FEW029/// BKN048/// BKN054/// ///CB 07/02 Q0998 TEMPO 2000 TSRAGS
Observed
Jan-28 @ 06:00 UTC
Wind
  • 230° at 17 KTS
  • Gusting to 31 KTS
Visibility
10,000+ meters
Flight Rules
VFR
Cloud Levels
  • Few at 2,900' AGL
  • Broken at 4,800' AGL
  • Broken at 5,400' AGL
Temperature
C / 45°F
Dewpoint
C / 36°F
Humidity
71%
Altimeter
29.47" Hg
Pressure
997.92 hPa
Previous

2 hours ago

LFPB 280530Z AUTO 23019KT 190V260 9999 SCT031 BKN041 OVC049 07/02 Q0998 TEMPO 22020G35KT 2000 SHRAGS SCT015CB
Observed
Jan-28 @ 05:30 UTC
Wind
  • 230° at 19 KTS
Visibility
10,000+ meters
Flight Rules
VFR
Cloud Levels
  • Scattered at 3,100' AGL
  • Broken at 4,100' AGL
  • Overcast at 4,900' AGL
Temperature
C / 45°F
Dewpoint
C / 36°F
Humidity
71%
Altimeter
29.47" Hg
Pressure
997.92 hPa